createdAt,value
2023-03-29T00:01:03.319Z,8.58
2023-03-29T00:03:31.710Z,8.65
2023-03-29T00:06:05.757Z,8.64
2023-03-29T00:08:38.044Z,8.71
2023-03-29T00:11:07.724Z,8.50
2023-03-29T00:13:38.511Z,8.59
2023-03-29T00:16:13.062Z,8.69
2023-03-29T00:18:43.249Z,8.60
2023-03-29T00:21:12.475Z,8.55
2023-03-29T00:23:40.297Z,8.58
2023-03-29T00:26:08.604Z,8.56
2023-03-29T00:28:37.863Z,8.38
2023-03-29T00:31:08.547Z,8.33
2023-03-29T00:33:37.088Z,8.33
2023-03-29T00:36:06.074Z,8.24
2023-03-29T00:38:34.094Z,8.24
2023-03-29T00:41:02.495Z,8.11
2023-03-29T00:43:30.827Z,8.30
2023-03-29T00:46:00.245Z,8.31
2023-03-29T00:48:30.117Z,8.41
2023-03-29T00:51:04.685Z,8.35
2023-03-29T00:53:37.428Z,8.32
2023-03-29T00:56:10.140Z,8.45
2023-03-29T00:58:44.777Z,8.57
2023-03-29T01:01:19.366Z,8.61
2023-03-29T01:03:54.255Z,8.39
2023-03-29T01:06:26.144Z,8.37
2023-03-29T01:08:57.107Z,8.26
2023-03-29T01:11:28.499Z,8.18
2023-03-29T01:14:02.909Z,8.22
2023-03-29T01:16:34.291Z,8.14
2023-03-29T01:19:03.083Z,8.10
2023-03-29T01:21:36.508Z,7.96
2023-03-29T01:24:34.347Z,7.88
2023-03-29T01:27:09.807Z,8.08
2023-03-29T01:29:43.121Z,7.87
2023-03-29T01:32:14.216Z,7.83
2023-03-29T01:34:49.825Z,8.09
2023-03-29T01:37:24.648Z,7.97
2023-03-29T01:39:53.149Z,8.02
2023-03-29T01:42:33.466Z,7.91
2023-03-29T01:45:16.729Z,7.77
2023-03-29T01:47:49.302Z,7.81
2023-03-29T01:50:20.815Z,7.85
2023-03-29T01:52:55.066Z,7.79
2023-03-29T01:55:26.910Z,7.99
2023-03-29T01:57:57.645Z,7.82
2023-03-29T02:00:29.540Z,7.70
2023-03-29T02:03:04.560Z,7.67
2023-03-29T02:05:33.528Z,7.54
2023-03-29T02:08:06.266Z,7.64
2023-03-29T02:10:36.709Z,7.67
2023-03-29T02:13:06.264Z,7.42
2023-03-29T02:15:35.924Z,7.59
2023-03-29T02:18:04.272Z,7.50
2023-03-29T02:20:36.809Z,7.47
2023-03-29T02:23:09.363Z,7.49
2023-03-29T02:25:38.713Z,7.48
2023-03-29T02:28:07.853Z,7.48
2023-03-29T02:30:46.461Z,7.68
2023-03-29T02:33:18.452Z,7.53
2023-03-29T02:35:53.303Z,7.53
2023-03-29T02:38:27.724Z,7.64
2023-03-29T02:40:59.090Z,7.77
2023-03-29T02:43:30.250Z,7.83
2023-03-29T02:46:00.510Z,7.73
2023-03-29T02:48:31.155Z,7.81
2023-03-29T02:51:04.511Z,7.66
2023-03-29T02:53:39.375Z,7.83
2023-03-29T02:56:08.898Z,7.87
2023-03-29T02:58:36.923Z,7.86
2023-03-29T03:01:07.534Z,7.93
2023-03-29T03:03:35.990Z,7.74
2023-03-29T03:06:05.963Z,7.20
2023-03-29T03:08:34.174Z,6.87
2023-03-29T03:11:03.476Z,7.29
2023-03-29T03:13:34.097Z,7.46
2023-03-29T03:16:03.355Z,7.56
2023-03-29T03:18:33.089Z,7.64
2023-03-29T03:21:02.654Z,7.69
2023-03-29T03:23:30.981Z,7.76
2023-03-29T03:25:59.128Z,7.85
2023-03-29T03:28:27.368Z,7.88
2023-03-29T03:30:56.006Z,7.89
2023-03-29T03:33:24.374Z,7.83
2023-03-29T03:36:16.910Z,7.83
2023-03-29T03:38:46.507Z,7.86
2023-03-29T03:41:14.360Z,7.95
2023-03-29T03:43:43.909Z,8.02
2023-03-29T03:46:12.430Z,8.03
2023-03-29T03:48:40.597Z,7.96
2023-03-29T03:51:39.192Z,8.02
2023-03-29T03:54:07.549Z,8.06
2023-03-29T03:56:35.607Z,8.11
2023-03-29T03:59:19.982Z,8.04
2023-03-29T04:02:14.932Z,8.09
2023-03-29T04:04:44.182Z,8.18
2023-03-29T04:07:20.602Z,8.15
2023-03-29T04:09:57.360Z,8.09
2023-03-29T04:12:34.518Z,8.14
2023-03-29T04:15:03.629Z,8.20
2023-03-29T04:17:33.930Z,8.20
2023-03-29T04:20:12.664Z,8.24
2023-03-29T04:22:44.261Z,8.26
2023-03-29T04:25:15.666Z,8.10
2023-03-29T04:27:50.917Z,8.18
2023-03-29T04:30:47.001Z,8.01
2023-03-29T04:33:16.165Z,7.87
2023-03-29T04:35:48.823Z,7.89
2023-03-29T04:38:23.314Z,8.01
2023-03-29T04:40:54.921Z,8.17
2023-03-29T04:43:46.615Z,8.17
2023-03-29T04:46:28.915Z,8.28
2023-03-29T04:49:17.087Z,8.36
2023-03-29T04:51:49.078Z,8.44
2023-03-29T04:54:22.992Z,8.25
2023-03-29T04:57:04.873Z,8.26
2023-03-29T04:59:44.490Z,7.87
2023-03-29T05:02:38.723Z,7.91
2023-03-29T05:05:06.898Z,8.28
2023-03-29T05:07:35.640Z,8.38
2023-03-29T05:10:06.664Z,8.36
2023-03-29T05:12:35.213Z,8.43
2023-03-29T05:15:03.517Z,8.45
2023-03-29T05:17:33.545Z,8.61
2023-03-29T05:20:11.746Z,8.68
2023-03-29T05:22:40.890Z,8.72
2023-03-29T05:25:13.653Z,8.65
2023-03-29T05:27:45.783Z,8.76
2023-03-29T05:30:15.809Z,8.51
2023-03-29T05:33:10.450Z,8.69
2023-03-29T05:35:40.542Z,8.73
2023-03-29T05:38:09.886Z,8.48
2023-03-29T05:40:39.541Z,8.57
2023-03-29T05:43:36.882Z,8.77
2023-03-29T05:46:06.103Z,8.71
2023-03-29T05:48:34.839Z,8.79
2023-03-29T05:51:03.736Z,8.96
2023-03-29T05:53:32.237Z,9.04
2023-03-29T05:56:02.325Z,9.01
2023-03-29T05:58:31.284Z,9.03
2023-03-29T06:01:00.437Z,9.08
2023-03-29T06:03:49.179Z,9.09
2023-03-29T06:06:19.425Z,9.11
2023-03-29T06:08:48.896Z,9.26
2023-03-29T06:11:24.336Z,9.27
2023-03-29T06:14:18.982Z,9.42
2023-03-29T06:16:53.425Z,9.42
2023-03-29T06:19:22.720Z,9.47
2023-03-29T06:21:53.271Z,9.48
2023-03-29T06:24:25.951Z,9.56
2023-03-29T06:27:02.444Z,9.58
2023-03-29T06:29:31.624Z,9.56
2023-03-29T06:32:00.575Z,9.30
2023-03-29T06:34:48.538Z,9.43
2023-03-29T06:37:50.413Z,9.63
2023-03-29T06:40:27.330Z,9.69
2023-03-29T06:42:57.912Z,9.81
2023-03-29T06:45:48.200Z,9.64
2023-03-29T06:48:30.069Z,9.48
2023-03-29T06:50:58.586Z,9.61
2023-03-29T06:53:30.734Z,9.68
2023-03-29T06:56:05.304Z,9.73
2023-03-29T06:58:45.756Z,9.72
2023-03-29T07:01:37.981Z,9.83
2023-03-29T07:04:13.883Z,9.84
2023-03-29T07:07:27.583Z,9.99
2023-03-29T07:10:10.765Z,9.77
2023-03-29T07:13:02.157Z,10.10
2023-03-29T07:15:31.596Z,10.37
2023-03-29T07:18:19.959Z,10.40
2023-03-29T07:20:49.248Z,10.40
2023-03-29T07:23:18.145Z,10.52
2023-03-29T07:25:47.342Z,10.52
2023-03-29T07:28:15.807Z,10.59
2023-03-29T07:30:45.022Z,10.65
2023-03-29T07:33:16.961Z,10.78
2023-03-29T07:36:00.276Z,10.57
2023-03-29T07:38:28.985Z,10.51
2023-03-29T07:41:05.007Z,10.34
2023-03-29T07:43:51.906Z,10.38
2023-03-29T07:46:26.228Z,10.27
2023-03-29T07:48:56.648Z,10.40
2023-03-29T07:51:28.261Z,10.82
2023-03-29T07:54:06.557Z,10.89
2023-03-29T07:57:09.919Z,11.22
2023-03-29T07:59:45.840Z,11.29
2023-03-29T08:02:22.820Z,11.48
2023-03-29T08:04:56.725Z,11.65
2023-03-29T08:07:44.884Z,11.69
2023-03-29T08:10:17.491Z,11.69
2023-03-29T08:13:00.965Z,11.76
2023-03-29T08:15:39.354Z,12.00
2023-03-29T08:18:20.834Z,11.65
2023-03-29T08:20:50.873Z,11.98
2023-03-29T08:23:18.845Z,12.18
2023-03-29T08:26:03.488Z,12.29
2023-03-29T08:28:32.245Z,12.07
2023-03-29T08:31:01.369Z,12.30
2023-03-29T08:33:31.488Z,12.21
2023-03-29T08:36:22.503Z,12.23
2023-03-29T08:38:53.292Z,12.10
2023-03-29T08:41:36.624Z,12.25
2023-03-29T08:44:18.242Z,12.38
2023-03-29T08:47:07.229Z,12.10
2023-03-29T08:49:48.288Z,12.07
2023-03-29T08:52:25.186Z,11.93
2023-03-29T08:54:57.022Z,11.78
2023-03-29T08:57:47.479Z,12.02
2023-03-29T09:00:33.807Z,11.75
2023-03-29T09:03:09.909Z,12.55
2023-03-29T09:05:46.332Z,12.81
2023-03-29T09:08:28.063Z,12.98
2023-03-29T09:11:15.108Z,13.34
2023-03-29T09:13:49.440Z,13.47
2023-03-29T09:16:26.419Z,13.58
2023-03-29T09:19:08.152Z,13.51
2023-03-29T09:21:46.588Z,13.77
2023-03-29T09:24:30.017Z,14.12
2023-03-29T09:27:26.963Z,14.23
2023-03-29T09:30:14.863Z,14.48
2023-03-29T09:33:13.621Z,14.70
2023-03-29T09:36:08.994Z,14.60
2023-03-29T09:38:44.319Z,14.89
2023-03-29T09:41:22.853Z,15.07
2023-03-29T09:43:52.926Z,14.94
2023-03-29T09:46:30.289Z,15.54
2023-03-29T09:48:58.327Z,15.90
2023-03-29T09:51:29.146Z,15.15
2023-03-29T09:54:00.271Z,15.27
2023-03-29T09:56:48.755Z,15.51
2023-03-29T09:59:22.092Z,16.38
2023-03-29T10:01:50.245Z,16.68
2023-03-29T10:04:18.810Z,16.95
2023-03-29T10:06:53.866Z,16.74
2023-03-29T10:09:25.269Z,16.18
2023-03-29T10:12:03.172Z,16.25
2023-03-29T10:14:36.985Z,16.86
2023-03-29T10:17:07.736Z,17.48
2023-03-29T10:19:37.009Z,17.54
2023-03-29T10:22:07.598Z,17.27
2023-03-29T10:24:37.097Z,16.73
2023-03-29T10:27:10.990Z,15.72
2023-03-29T10:29:42.278Z,15.28
2023-03-29T10:32:18.513Z,16.15
2023-03-29T10:34:48.385Z,16.25
2023-03-29T10:37:19.363Z,16.51
2023-03-29T10:39:50.001Z,15.44
2023-03-29T10:42:21.205Z,16.19
2023-03-29T10:44:54.811Z,16.84
2023-03-29T10:47:23.303Z,16.95
2023-03-29T10:49:56.619Z,17.06
2023-03-29T10:52:26.684Z,17.44
2023-03-29T10:54:59.217Z,18.10
2023-03-29T10:57:36.140Z,17.22
2023-03-29T11:00:14.612Z,16.49
2023-03-29T11:03:17.122Z,16.67
2023-03-29T11:05:55.669Z,16.14
2023-03-29T11:08:47.302Z,16.59
2023-03-29T11:11:34.176Z,16.69
2023-03-29T11:14:09.280Z,17.14
2023-03-29T11:16:42.975Z,16.81
2023-03-29T11:19:26.398Z,16.63
2023-03-29T11:22:00.902Z,17.02
2023-03-29T11:24:50.272Z,18.24
2023-03-29T11:27:31.734Z,18.76
2023-03-29T11:30:08.140Z,19.14
2023-03-29T11:32:47.484Z,19.27
2023-03-29T11:35:31.643Z,19.41
2023-03-29T11:38:06.772Z,20.16
2023-03-29T11:40:47.914Z,19.74
2023-03-29T11:43:24.390Z,19.35
2023-03-29T11:45:59.304Z,20.11
2023-03-29T11:48:32.664Z,19.43
2023-03-29T11:51:06.934Z,18.39
2023-03-29T11:53:43.111Z,19.77
2023-03-29T11:56:15.517Z,20.26
2023-03-29T11:58:49.372Z,20.60
2023-03-29T12:01:23.150Z,19.85
2023-03-29T12:03:54.756Z,19.91
2023-03-29T12:06:28.287Z,20.96
2023-03-29T12:09:00.594Z,21.43
2023-03-29T12:11:34.626Z,20.53
2023-03-29T12:14:10.506Z,21.31
2023-03-29T12:16:43.030Z,21.10
2023-03-29T12:19:19.257Z,20.96
2023-03-29T12:21:48.352Z,20.71
2023-03-29T12:24:19.957Z,20.74
2023-03-29T12:27:01.997Z,21.27
2023-03-29T12:29:45.757Z,21.17
2023-03-29T12:32:31.683Z,21.42
2023-03-29T12:35:26.553Z,22.04
2023-03-29T12:38:22.955Z,21.57
2023-03-29T12:41:16.910Z,21.42
2023-03-29T12:44:16.577Z,21.06
2023-03-29T12:47:00.319Z,20.16
2023-03-29T12:49:33.048Z,19.64
2023-03-29T12:52:23.416Z,19.86
2023-03-29T12:54:59.520Z,20.77
2023-03-29T12:57:30.115Z,20.68
2023-03-29T13:00:12.676Z,19.63
2023-03-29T13:02:45.949Z,18.89
2023-03-29T13:05:32.118Z,19.35
2023-03-29T13:08:00.023Z,20.10
2023-03-29T13:10:40.712Z,19.40
2023-03-29T13:13:17.630Z,19.78
2023-03-29T13:15:46.652Z,19.64
2023-03-29T13:18:32.256Z,19.66
2023-03-29T13:21:11.628Z,19.05
2023-03-29T13:23:49.810Z,20.02
2023-03-29T13:26:49.160Z,19.61
2023-03-29T13:29:38.259Z,19.66
2023-03-29T13:32:27.318Z,19.72
2023-03-29T13:35:05.757Z,19.28
2023-03-29T13:37:45.460Z,19.73
2023-03-29T13:40:45.193Z,20.13
2023-03-29T13:43:26.298Z,19.39
2023-03-29T13:46:09.519Z,18.73
2023-03-29T13:48:56.914Z,19.19
2023-03-29T13:51:40.502Z,19.48
2023-03-29T13:54:36.745Z,19.70
2023-03-29T13:57:14.552Z,19.16
2023-03-29T14:00:00.888Z,19.20
2023-03-29T14:02:35.785Z,18.42
2023-03-29T14:05:08.721Z,17.86
2023-03-29T14:07:41.282Z,17.07
2023-03-29T14:10:13.841Z,16.31
2023-03-29T14:12:43.964Z,16.58
2023-03-29T14:15:24.132Z,16.55
2023-03-29T14:17:58.947Z,16.33
2023-03-29T14:20:29.403Z,15.99
2023-03-29T14:22:59.660Z,16.22
2023-03-29T14:25:32.579Z,16.67
2023-03-29T14:28:01.440Z,16.69
2023-03-29T14:30:32.570Z,16.68
2023-03-29T14:33:05.268Z,17.07
2023-03-29T14:35:34.970Z,17.08
2023-03-29T14:38:05.457Z,17.19
2023-03-29T14:40:37.953Z,17.18
2023-03-29T14:43:11.135Z,17.48
2023-03-29T14:45:39.584Z,17.33
2023-03-29T14:48:07.978Z,17.21
2023-03-29T14:50:36.575Z,17.58
2023-03-29T14:53:08.439Z,17.74
2023-03-29T14:55:37.213Z,17.53
2023-03-29T14:58:18.253Z,17.70
2023-03-29T15:00:52.208Z,17.75
2023-03-29T15:03:26.387Z,17.84
2023-03-29T15:05:58.851Z,17.56
2023-03-29T15:08:34.289Z,17.52
2023-03-29T15:11:04.659Z,17.68
2023-03-29T15:13:32.769Z,17.73
2023-03-29T15:16:05.947Z,17.47
2023-03-29T15:18:40.121Z,17.59
2023-03-29T15:21:09.559Z,17.69
2023-03-29T15:23:42.634Z,17.78
2023-03-29T15:26:17.121Z,17.79
2023-03-29T15:28:55.488Z,17.77
2023-03-29T15:31:46.240Z,17.54
2023-03-29T15:34:26.603Z,17.84
2023-03-29T15:36:57.408Z,17.80
2023-03-29T15:39:28.787Z,17.85
2023-03-29T15:41:59.604Z,17.54
2023-03-29T15:44:29.255Z,17.48
2023-03-29T15:46:59.764Z,17.61
2023-03-29T15:49:29.022Z,17.69
2023-03-29T15:51:58.589Z,17.25
2023-03-29T15:54:29.073Z,17.43
2023-03-29T15:57:01.838Z,17.14
2023-03-29T15:59:30.092Z,17.36
2023-03-29T16:01:58.769Z,17.34
2023-03-29T16:04:29.168Z,17.38
2023-03-29T16:06:57.811Z,17.45
2023-03-29T16:09:27.355Z,16.98
2023-03-29T16:11:56.441Z,17.20
2023-03-29T16:14:27.577Z,17.17
2023-03-29T16:16:57.353Z,17.14
2023-03-29T16:19:26.667Z,17.18
2023-03-29T16:21:57.759Z,17.14
2023-03-29T16:24:31.221Z,17.24
2023-03-29T16:27:00.080Z,17.00
2023-03-29T16:29:28.384Z,16.90
2023-03-29T16:31:56.321Z,17.08
2023-03-29T16:34:25.153Z,17.25
2023-03-29T16:36:53.890Z,16.97
2023-03-29T16:39:21.832Z,16.91
2023-03-29T16:41:51.205Z,17.02
2023-03-29T16:44:23.983Z,17.15
2023-03-29T16:46:53.869Z,16.81
2023-03-29T16:49:22.403Z,16.98
2023-03-29T16:51:50.301Z,17.06
2023-03-29T16:54:19.004Z,17.06
2023-03-29T16:56:47.325Z,16.59
2023-03-29T16:59:16.674Z,16.58
2023-03-29T17:01:44.742Z,16.69
2023-03-29T17:04:13.199Z,16.53
2023-03-29T17:06:42.026Z,16.45
2023-03-29T17:09:10.064Z,16.96
2023-03-29T17:11:38.023Z,17.25
2023-03-29T17:14:05.913Z,17.16
2023-03-29T17:16:35.245Z,17.17
2023-03-29T17:19:03.122Z,17.34
2023-03-29T17:21:31.666Z,17.15
2023-03-29T17:23:59.600Z,17.33
2023-03-29T17:27:03.941Z,17.60
2023-03-29T17:29:37.166Z,17.44
2023-03-29T17:32:06.914Z,16.90
2023-03-29T17:34:35.055Z,16.70
2023-03-29T17:37:03.893Z,16.32
2023-03-29T17:39:32.299Z,16.50
2023-03-29T17:42:00.178Z,16.21
2023-03-29T17:44:28.613Z,15.36
2023-03-29T17:46:56.812Z,15.41
2023-03-29T17:49:36.875Z,15.82
2023-03-29T17:52:10.339Z,16.02
2023-03-29T17:54:41.806Z,16.59
2023-03-29T17:57:13.087Z,16.42
2023-03-29T17:59:50.629Z,16.55
2023-03-29T18:02:21.697Z,16.48
2023-03-29T18:04:52.237Z,16.43
2023-03-29T18:07:24.756Z,16.66
2023-03-29T18:09:53.351Z,16.49
2023-03-29T18:12:28.028Z,16.63
2023-03-29T18:15:04.678Z,16.46
2023-03-29T18:17:35.910Z,16.60
2023-03-29T18:20:11.253Z,16.71
2023-03-29T18:22:39.581Z,16.70
2023-03-29T18:25:09.870Z,16.84
2023-03-29T18:27:40.693Z,16.56
2023-03-29T18:30:10.435Z,16.70
2023-03-29T18:32:38.680Z,16.50
2023-03-29T18:35:09.374Z,16.62
2023-03-29T18:37:37.359Z,16.59
2023-03-29T18:40:09.325Z,16.73
2023-03-29T18:42:37.582Z,16.59
2023-03-29T18:45:09.448Z,16.66
2023-03-29T18:47:37.876Z,16.88
2023-03-29T18:50:09.457Z,16.90
2023-03-29T18:52:37.707Z,16.90
2023-03-29T18:55:06.733Z,16.38
2023-03-29T18:57:35.780Z,15.62
2023-03-29T19:00:10.531Z,15.89
2023-03-29T19:02:39.072Z,16.30
2023-03-29T19:05:10.102Z,16.11
2023-03-29T19:07:38.930Z,15.68
2023-03-29T19:10:10.219Z,15.57
2023-03-29T19:12:38.876Z,16.05
2023-03-29T19:15:08.174Z,15.86
2023-03-29T19:17:36.316Z,15.59
2023-03-29T19:20:10.082Z,16.12
2023-03-29T19:22:40.456Z,16.45
2023-03-29T19:25:09.688Z,16.54
2023-03-29T19:27:38.025Z,16.61
2023-03-29T19:30:08.160Z,16.63
2023-03-29T19:32:36.425Z,16.64
2023-03-29T19:35:05.578Z,16.51
2023-03-29T19:37:33.562Z,16.17
2023-03-29T19:40:06.781Z,16.45
2023-03-29T19:42:36.079Z,16.09
2023-03-29T19:45:04.415Z,16.15
2023-03-29T19:47:32.293Z,16.15
2023-03-29T19:50:00.928Z,16.15
2023-03-29T19:52:30.269Z,15.69
2023-03-29T19:54:59.328Z,15.78
2023-03-29T19:57:28.569Z,15.97
2023-03-29T19:59:56.647Z,15.90
2023-03-29T20:02:24.536Z,16.17
2023-03-29T20:04:52.876Z,16.20
2023-03-29T20:07:20.808Z,16.12
2023-03-29T20:09:49.908Z,16.17
2023-03-29T20:12:17.786Z,16.14
2023-03-29T20:14:47.030Z,15.87
2023-03-29T20:17:14.930Z,16.07
2023-03-29T20:19:44.084Z,16.02
2023-03-29T20:22:12.509Z,15.46
2023-03-29T20:24:40.581Z,15.27
2023-03-29T20:27:08.689Z,15.70
2023-03-29T20:29:36.687Z,15.39
2023-03-29T20:32:06.474Z,15.38
2023-03-29T20:34:34.556Z,15.46
2023-03-29T20:37:05.781Z,15.34
2023-03-29T20:39:33.686Z,15.68
2023-03-29T20:42:03.907Z,15.93
2023-03-29T20:44:34.202Z,16.04
2023-03-29T20:47:03.858Z,16.14
2023-03-29T20:49:40.141Z,16.18
2023-03-29T20:52:12.420Z,16.19
2023-03-29T20:54:40.329Z,16.06
2023-03-29T20:57:08.747Z,16.07
2023-03-29T20:59:38.021Z,15.88
2023-03-29T21:02:06.050Z,15.94
2023-03-29T21:04:37.708Z,15.91
2023-03-29T21:07:06.417Z,15.94
2023-03-29T21:09:37.475Z,15.91
2023-03-29T21:12:05.851Z,15.86
2023-03-29T21:14:33.780Z,15.92
2023-03-29T21:17:01.745Z,15.95
2023-03-29T21:19:29.642Z,16.00
2023-03-29T21:21:58.922Z,16.01
2023-03-29T21:24:26.806Z,16.03
2023-03-29T21:26:54.716Z,16.02
2023-03-29T21:29:22.669Z,15.95
2023-03-29T21:31:50.569Z,16.01
2023-03-29T21:34:22.058Z,15.95
2023-03-29T21:36:49.910Z,15.99
2023-03-29T21:39:19.274Z,15.99
2023-03-29T21:41:47.513Z,15.92
2023-03-29T21:44:16.265Z,16.08
2023-03-29T21:46:44.482Z,16.04
2023-03-29T21:49:12.786Z,15.88
2023-03-29T21:51:40.629Z,15.97
2023-03-29T21:54:08.504Z,15.71
2023-03-29T21:56:37.836Z,15.95
2023-03-29T21:59:05.715Z,15.92
2023-03-29T22:01:34.323Z,16.04
2023-03-29T22:04:02.325Z,16.02
2023-03-29T22:06:30.327Z,16.19
2023-03-29T22:09:00.856Z,16.28
2023-03-29T22:11:29.600Z,16.37
2023-03-29T22:13:59.188Z,16.39
2023-03-29T22:16:28.459Z,16.39
2023-03-29T22:18:56.491Z,16.46
2023-03-29T22:21:26.603Z,16.43
2023-03-29T22:23:56.311Z,16.38
2023-03-29T22:26:29.146Z,16.34
2023-03-29T22:28:59.532Z,16.23
2023-03-29T22:31:29.189Z,16.11
2023-03-29T22:33:58.604Z,16.25
2023-03-29T22:36:30.619Z,16.02
2023-03-29T22:38:58.849Z,16.09
2023-03-29T22:41:27.829Z,16.20
2023-03-29T22:43:59.480Z,16.38
2023-03-29T22:46:27.798Z,16.34
2023-03-29T22:48:55.817Z,16.31
2023-03-29T22:51:24.062Z,16.47
2023-03-29T22:53:52.022Z,16.54
2023-03-29T22:56:19.881Z,16.63
2023-03-29T22:58:47.823Z,16.55
2023-03-29T23:01:17.435Z,16.43
2023-03-29T23:03:45.442Z,16.42
2023-03-29T23:06:13.435Z,16.50
2023-03-29T23:08:41.279Z,16.77
2023-03-29T23:11:10.362Z,16.87
2023-03-29T23:13:38.679Z,16.87
2023-03-29T23:16:08.406Z,16.78
2023-03-29T23:18:38.646Z,16.87
2023-03-29T23:21:08.914Z,16.98
2023-03-29T23:23:36.979Z,16.94
2023-03-29T23:26:05.454Z,16.98
2023-03-29T23:28:34.709Z,17.08
2023-03-29T23:31:04.968Z,17.22
2023-03-29T23:33:35.498Z,17.03
2023-03-29T23:36:07.410Z,17.11
2023-03-29T23:38:37.485Z,17.13
2023-03-29T23:41:08.479Z,17.30
2023-03-29T23:43:40.582Z,17.37
2023-03-29T23:46:10.682Z,17.18
2023-03-29T23:48:39.203Z,17.27
2023-03-29T23:51:09.969Z,17.29
2023-03-29T23:53:38.233Z,17.30
2023-03-29T23:56:07.716Z,17.56
2023-03-29T23:58:38.276Z,17.60
